Latest Weather Observations for Kanagulk

IDV60801

Issued at 9:05 pm EST Thursday 24 April 2014 (issued every 30 minutes, with the page automatically refreshed every 10 minutes)

About weather observations | Map of weather stations | Latest weather observations for VIC | Other Formats
Station Details ID: 079097 Name: KANAGULK Lat: -37.12 Lon: 141.80 Height: 188.8 m
Data from the previous 72 hours. | See also: Recent months at Kanagulk
Date/Time
EST
Temp
°C
App
Temp
°C
Dew
Point
Rel
Hum
%
Delta-T
°C
Wind Press
QNH
hPa
Press
MSL
hPa
Rain
since 9 am
mm
Dir
 
Spd
km/h
Gust
km/h
Spd
kts
Gust
kts
24/09:00pm 8.5 4.8 4.7 77 1.7 SSE 13 15 7 8 1020.9 1020.8 0.0
24/08:30pm 8.8 5.5 4.4 74 2.0 S 11 15 6 8 1020.6 - 0.0
24/08:00pm 8.3 4.5 3.8 73 2.0 SSE 13 15 7 8 1020.3 - 0.0
24/07:30pm 9.0 6.2 3.4 68 2.4 S 7 9 4 5 1020.1 - 0.0
24/07:00pm 10.5 7.1 4.0 64 2.9 S 11 13 6 7 1019.9 - 0.0
24/06:30pm 11.8 8.1 4.3 60 3.4 S 13 15 7 8 1019.5 - 0.0
24/06:00pm 11.1 8.0 3.6 60 3.3 SSE 9 11 5 6 1019.2 1019.0 0.0
24/05:30pm 13.7 10.2 3.5 50 4.6 SSE 11 15 6 8 1018.7 - 0.0
24/05:00pm 15.2 11.7 3.7 46 5.3 S 11 17 6 9 1018.4 - 0.0
24/04:30pm 15.6 10.7 4.0 46 5.4 S 19 24 10 13 1018.3 - 0.0
24/04:00pm 16.1 11.8 3.5 43 5.8 S 15 19 8 10 1018.1 - 0.0
24/03:30pm 16.4 12.1 3.5 42 6.0 S 15 30 8 16 1017.9 - 0.0
24/03:00pm 17.0 12.3 3.3 40 6.4 SSE 17 24 9 13 1017.7 1017.6 0.0
24/02:30pm 17.3 12.1 3.6 40 6.4 S 20 26 11 14 1017.7 - 0.0
24/02:00pm 16.8 12.0 2.8 39 6.4 S 17 30 9 16 1017.8 - 0.0
24/01:30pm 16.4 11.3 2.8 40 6.2 S 19 30 10 16 1017.9 - 0.0
24/01:00pm 16.3 11.0 2.0 38 6.4 S 19 33 10 18 1018.0 - 0.0
24/12:30pm 16.0 10.2 2.1 39 6.3 S 22 32 12 17 1018.2 - 0.0
24/12:00pm 15.4 9.9 1.9 40 6.0 SSW 20 35 11 19 1018.2 1018.1 0.0
24/11:30am 14.9 9.0 3.7 47 5.2 SSW 24 35 13 19 1018.3 - 0.0
24/11:00am 14.5 9.5 4.5 51 4.7 S 20 32 11 17 1018.3 - 0.0
24/10:30am 13.9 8.8 5.8 58 3.9 S 22 32 12 17 1018.0 - 0.0
24/10:00am 14.0 9.3 6.1 59 3.8 SSW 20 32 11 17 1017.8 - 0.0
24/09:30am 13.4 9.5 7.0 65 3.1 SSW 17 28 9 15 1017.6 - 0.0
24/09:00am 12.5 8.2 7.8 73 2.3 SSW 20 32 11 17 1017.3 1017.2 0.6
24/08:30am 11.8 7.5 9.4 85 1.2 SSW 22 37 12 20 1016.8 - 0.6
24/08:00am 11.6 9.0 10.8 95 0.4 SSW 15 26 8 14 1015.9 - 0.6
24/07:30am 12.0 10.0 11.5 97 0.3 SSW 13 19 7 10 1015.3 - 0.6
24/07:00am 12.2 9.5 11.7 97 0.3 SSW 17 20 9 11 1014.7 - 0.4
24/06:30am 12.1 9.1 11.8 98 0.2 SW 19 30 10 16 1014.0 - 0.4
24/06:00am 12.3 11.0 11.4 94 0.5 WNW 9 15 5 8 1013.3 1013.2 0.0
24/05:30am 12.3 10.8 10.7 90 0.8 WNW 9 15 5 8 1012.7 - 0.0
24/05:00am 11.9 10.2 10.0 88 1.0 NW 9 19 5 10 1012.5 - 0.0
24/04:30am 11.1 9.2 9.2 88 1.0 NW 9 11 5 6 1012.2 - 0.0
24/04:00am 10.9 8.9 8.5 85 1.2 NW 9 15 5 8 1012.1 - 0.0
24/03:30am 10.9 8.6 7.6 80 1.6 NW 9 13 5 7 1012.1 - 0.0
24/03:00am 11.3 8.5 7.0 75 2.1 NW 11 15 6 8 1012.2 1012.1 0.0
24/02:30am 12.1 9.3 7.0 71 2.5 NW 11 17 6 9 1012.2 - 0.0
24/02:00am 12.8 9.6 7.0 68 2.8 NW 13 19 7 10 1012.4 - 0.0
24/01:30am 12.9 9.2 6.3 64 3.2 NW 15 20 8 11 1012.4 - 0.0
24/01:00am 12.7 9.7 5.8 63 3.3 NW 11 17 6 9 1012.8 - 0.0
24/12:30am 12.2 9.0 5.1 62 3.3 NW 11 17 6 9 1012.7 - 0.0
24/12:00am 12.0 8.7 4.5 60 3.4 NNW 11 15 6 8 1012.9 1012.8 0.0
 
Date/Time
EST
Temp
°C
App
Temp
°C
Dew
Point
Rel
Hum
%
Delta-T
°C
Wind Press
QNH
hPa
Press
MSL
hPa
Rain
since 9 am
mm
Dir
 
Spd
km/h
Gust
km/h
Spd
kts
Gust
kts
23/11:30pm 12.7 9.4 4.4 57 3.8 NW 11 17 6 9 1013.2 - 0.0
23/11:00pm 12.9 9.9 4.1 55 4.0 NNW 9 15 5 8 1013.3 - 0.0
23/10:30pm 12.3 9.5 5.0 61 3.4 NNW 9 13 5 7 1013.6 - 0.0
23/10:00pm 11.7 9.6 5.6 66 2.9 NNW 6 7 3 4 1013.9 - 0.0
23/09:30pm 12.1 9.9 5.3 63 3.2 NNW 6 9 3 5 1013.9 - 0.0
23/09:00pm 12.3 9.8 5.0 61 3.4 NW 7 9 4 5 1014.0 1013.8 0.0
23/08:30pm 12.9 10.5 5.1 59 3.7 NNW 7 11 4 6 1013.9 - 0.0
23/08:00pm 13.5 11.0 4.9 56 4.0 WNW 7 13 4 7 1014.0 - 0.0
23/07:30pm 14.1 11.3 5.2 55 4.2 NW 9 13 5 7 1014.0 - 0.0
23/07:00pm 13.5 11.0 4.9 56 4.0 NW 7 9 4 5 1013.7 - 0.0
23/06:30pm 15.1 13.0 5.6 53 4.6 WNW 6 9 3 5 1013.5 - 0.0
23/06:00pm 16.0 13.9 5.6 50 5.0 WNW 6 9 3 5 1013.3 1013.2 0.0
23/05:30pm 16.8 14.4 5.4 47 5.5 WNW 7 11 4 6 1013.3 - 0.0
23/05:00pm 18.3 15.5 5.2 42 6.4 WNW 9 13 5 7 1013.1 - 0.0
23/04:30pm 18.5 15.1 5.7 43 6.3 WNW 13 24 7 13 1013.3 - 0.0
23/04:00pm 18.0 15.3 5.6 44 6.1 WNW 9 15 5 8 1013.6 - 0.0
23/03:30pm 18.2 15.2 6.1 45 6.0 W 11 20 6 11 1013.9 - 0.0
23/03:00pm 18.4 15.5 6.6 46 5.9 W 11 19 6 10 1014.2 1014.0 0.0
23/02:30pm 17.9 15.4 6.7 48 5.6 WNW 9 13 5 7 1014.4 - 0.0
23/02:00pm 17.6 13.9 6.5 48 5.5 WNW 15 24 8 13 1014.9 - 0.0
23/01:30pm 17.3 14.0 6.5 49 5.4 WNW 13 20 7 11 1015.2 - 0.0
23/01:00pm 16.7 13.9 6.8 52 4.9 NW 11 24 6 13 1015.5 - 0.0
23/12:30pm 17.2 14.5 7.3 52 5.0 NNW 11 20 6 11 1016.2 - 0.0
23/12:00pm 15.8 13.2 7.8 59 4.0 NNW 11 19 6 10 1016.6 1016.5 0.0
23/11:30am 14.4 12.4 8.6 68 3.0 NW 9 15 5 8 1017.1 - 0.0
23/11:00am 13.8 12.4 9.5 75 2.2 NW 7 13 4 7 1017.5 - 0.0
23/10:30am 13.3 10.9 8.6 73 2.4 NW 11 15 6 8 1018.1 - 0.0
23/10:00am 12.0 11.2 11.8 99 0.1 NW 7 13 4 7 1018.1 - 0.0
23/09:30am 10.1 9.4 9.9 99 0.1 NW 4 7 2 4 1018.1 - 0.0
23/09:00am 7.9 7.4 7.8 99 0.0 CALM 0 6 0 3 1018.1 1018.0 0.2
23/08:30am 7.2 6.5 7.1 99 0.0 CALM 0 0 0 0 1017.9 - 0.2
23/08:00am 5.2 4.1 5.1 99 0.0 CALM 0 0 0 0 1017.7 - 0.2
23/07:30am 3.0 1.5 2.9 99 0.0 CALM 0 0 0 0 1017.2 - 0.2
23/07:00am 2.4 0.8 2.3 99 0.0 CALM 0 0 0 0 1017.5 - 0.2
23/06:30am 3.4 2.0 3.3 99 0.0 CALM 0 0 0 0 1017.3 - 0.0
23/06:00am 3.0 1.1 2.9 99 0.0 SW 2 9 1 5 1017.2 1017.1 0.0
23/05:30am 2.5 0.9 2.4 99 0.0 CALM 0 0 0 0 1017.1 - 0.0
23/05:00am 3.6 2.2 3.5 99 0.0 CALM 0 0 0 0 1016.8 - 0.0
23/04:30am 4.0 2.7 3.9 99 0.0 CALM 0 0 0 0 1016.6 - 0.0
23/04:00am 3.9 2.5 3.8 99 0.0 CALM 0 0 0 0 1016.6 - 0.0
23/03:30am 3.6 2.2 3.5 99 0.0 CALM 0 0 0 0 1016.9 - 0.0
23/03:00am 4.5 3.3 4.4 99 0.0 CALM 0 0 0 0 1017.2 1017.1 0.0
23/02:30am 4.2 2.9 4.1 99 0.0 CALM 0 0 0 0 1017.2 - 0.0
23/02:00am 6.1 5.2 6.0 99 0.0 CALM 0 0 0 0 1017.1 - 0.0
23/01:30am 6.2 5.3 6.1 99 0.0 CALM 0 0 0 0 1017.4 - 0.0
23/01:00am 7.1 5.3 7.0 99 0.0 SSW 6 7 3 4 1017.7 - 0.0
23/12:30am 6.9 4.8 6.6 98 0.1 SW 7 7 4 4 1017.8 - 0.0
23/12:00am 6.6 5.6 5.7 94 0.4 CALM 0 0 0 0 1018.0 1017.9 0.0
 
Date/Time
EST
Temp
°C
App
Temp
°C
Dew
Point
Rel
Hum
%
Delta-T
°C
Wind Press
QNH
hPa
Press
MSL
hPa
Rain
since 9 am
mm
Dir
 
Spd
km/h
Gust
km/h
Spd
kts
Gust
kts
22/11:30pm 7.2 6.2 5.8 91 0.6 CALM 0 0 0 0 1018.1 - 0.0
22/11:00pm 8.7 8.0 6.8 88 0.9 CALM 0 0 0 0 1018.3 - 0.0
22/10:30pm 9.5 7.6 7.6 88 0.9 SE 7 7 4 4 1018.4 - 0.0
22/10:00pm 9.5 7.5 6.9 84 1.2 S 7 11 4 6 1018.4 - 0.0
22/09:30pm 9.9 7.4 6.6 80 1.6 S 9 13 5 7 1018.3 - 0.0
22/09:00pm 11.1 8.4 7.4 78 1.8 S 11 13 6 7 1018.1 1018.0 0.0
22/08:30pm 11.6 8.4 6.9 73 2.3 SSW 13 17 7 9 1017.8 - 0.0
22/08:00pm 11.6 8.7 6.7 72 2.4 SSW 11 13 6 7 1017.7 - 0.0
22/07:30pm 12.1 9.9 6.4 68 2.7 SSW 7 9 4 5 1017.5 - 0.0
22/07:00pm 12.9 10.3 6.3 64 3.2 S 9 13 5 7 1017.2 - 0.0
22/06:30pm 13.6 11.0 6.2 61 3.6 S 9 13 5 7 1016.8 - 0.0
22/06:00pm 15.1 11.5 6.7 57 4.1 S 15 20 8 11 1016.5 1016.4 0.0
22/05:30pm 15.8 12.2 6.8 55 4.5 SSW 15 20 8 11 1016.2 - 0.0
22/05:00pm 17.2 13.7 7.3 52 5.0 SW 15 20 8 11 1015.9 - 0.0
22/04:30pm 17.6 13.7 7.1 50 5.3 SSW 17 24 9 13 1015.8 - 0.0
22/04:00pm 17.9 14.0 7.3 50 5.4 SSW 17 24 9 13 1015.6 - 0.0
22/03:30pm 18.1 14.4 7.8 51 5.3 SSW 17 24 9 13 1015.3 - 0.0
22/03:00pm 18.2 14.0 7.6 50 5.4 SSW 19 30 10 16 1015.1 1014.9 0.0
22/02:30pm 18.3 14.5 7.4 49 5.6 SSW 17 22 9 12 1014.9 - 0.0
22/02:00pm 18.6 14.3 7.1 47 5.8 SSW 19 30 10 16 1014.8 - 0.0
22/01:30pm 18.1 14.1 8.4 53 5.0 SSW 19 32 10 17 1015.0 - 0.0
22/01:00pm 18.0 14.4 8.3 53 5.0 SW 17 30 9 16 1015.1 - 0.0
22/12:30pm 18.2 15.3 9.5 57 4.6 SW 15 24 8 13 1015.5 - 0.0
22/12:00pm 18.2 15.8 11.3 64 3.8 SSW 15 24 8 13 1015.6 1015.4 0.0
22/11:30am 16.7 13.8 11.0 69 3.1 SW 17 24 9 13 1015.9 - 0.0
22/11:00am 16.8 15.1 13.5 81 1.9 SW 15 28 8 15 1015.7 - 0.0
22/10:30am 15.0 13.9 14.2 95 0.5 SSW 13 19 7 10 1015.7 - 0.0
22/10:00am 15.2 14.7 15.0 99 0.1 SW 11 20 6 11 1015.6 - 0.0
22/09:30am 15.0 14.5 14.8 99 0.1 SW 11 17 6 9 1015.2 - 0.0
22/09:00am 14.8 14.6 14.6 99 0.1 SW 9 15 5 8 1015.1 1014.9 3.2
22/08:30am 14.3 13.9 14.1 99 0.1 W 9 15 5 8 1015.1 - 3.2
22/08:00am 13.5 14.5 13.3 99 0.1 CALM 0 0 0 0 1014.9 - 3.2
22/07:30am 13.3 14.3 13.1 99 0.1 CALM 0 0 0 0 1014.3 - 3.2
22/07:00am 13.7 14.4 13.5 99 0.1 WSW 2 7 1 4 1013.9 - 3.2
22/06:30am 13.6 13.0 13.4 99 0.1 SW 9 13 5 7 1013.2 - 3.2
22/06:00am 13.8 13.6 13.6 99 0.1 N 7 9 4 5 1012.8 1012.7 3.2
22/05:30am 13.8 12.1 13.6 99 0.1 NE 15 19 8 10 1012.0 - 2.8
22/05:00am 14.2 14.1 14.0 99 0.1 S 7 11 4 6 1012.8 - 2.0
22/04:30am 13.8 13.5 13.3 97 0.3 SSW 7 15 4 8 1013.1 - 1.8
22/04:00am 13.6 13.8 13.0 96 0.3 NW 4 7 2 4 1012.6 - 1.8
22/03:30am 13.6 13.8 13.0 96 0.3 N 4 7 2 4 1012.7 - 1.8
22/03:00am 13.7 14.1 12.6 93 0.6 WNW 2 7 1 4 1012.6 1012.5 1.6
22/02:30am 14.1 13.2 12.7 91 0.8 E 9 15 5 8 1011.5 - 1.6
22/02:00am 14.4 14.2 11.9 85 1.4 WSW 4 9 2 5 1013.2 - 0.6
22/01:30am 15.1 15.2 10.3 73 2.5 CALM 0 7 0 4 1011.7 - 0.2
22/01:00am 16.5 16.4 9.4 63 3.7 CALM 0 2 0 1 1012.1 - 0.0
22/12:30am 16.3 15.4 9.3 63 3.7 SSE 4 9 2 5 1011.7 - 0.0
22/12:00am 16.9 15.3 8.8 59 4.2 SW 7 11 4 6 1012.3 1012.2 0.0
 
Date/Time
EST
Temp
°C
App
Temp
°C
Dew
Point
Rel
Hum
%
Delta-T
°C
Wind Press
QNH
hPa
Press
MSL
hPa
Rain
since 9 am
mm
Dir
 
Spd
km/h
Gust
km/h
Spd
kts
Gust
kts
21/11:30pm 17.6 14.8 8.7 56 4.6 NNE 13 15 7 8 1012.1 - 0.0
21/11:00pm 17.1 14.9 7.7 54 4.8 NNE 9 13 5 7 1012.1 - 0.0
21/10:30pm 19.0 17.9 8.4 50 5.5 SW 4 11 2 6 1013.0 - 0.0
21/10:00pm 19.3 16.1 8.3 49 5.7 N 15 19 8 10 1012.2 - 0.0
21/09:30pm 19.7 16.5 8.4 48 5.9 N 15 20 8 11 1012.2 - 0.0

Other Formats:

Comma delimited format used in spreadsheet applications
http://www.bom.gov.au/fwo/IDV60801/IDV60801.95827.axf

JavaScript Object Notation format (JSON) in row-major order
http://www.bom.gov.au/fwo/IDV60801/IDV60801.95827.json